createdAt,value
2023-03-08T00:02:00.207Z,57.37
2023-03-08T00:04:26.904Z,57.22
2023-03-08T00:06:53.450Z,56.96
2023-03-08T00:09:20.093Z,57.25
2023-03-08T00:11:46.724Z,57.05
2023-03-08T00:14:13.350Z,57.03
2023-03-08T00:16:39.943Z,57.10
2023-03-08T00:19:08.774Z,57.10
2023-03-08T00:21:35.401Z,57.00
2023-03-08T00:24:02.010Z,57.25
2023-03-08T00:26:28.527Z,57.28
2023-03-08T00:28:55.110Z,56.73
2023-03-08T00:31:22.054Z,57.00
2023-03-08T00:33:52.955Z,56.88
2023-03-08T00:36:19.991Z,56.63
2023-03-08T00:38:48.306Z,56.96
2023-03-08T00:41:15.534Z,56.67
2023-03-08T00:43:45.036Z,56.76
2023-03-08T00:46:12.621Z,56.83
2023-03-08T00:48:39.323Z,56.82
2023-03-08T00:51:06.116Z,56.61
2023-03-08T00:53:32.790Z,56.79
2023-03-08T00:56:00.882Z,56.86
2023-03-08T00:58:30.506Z,56.75
2023-03-08T01:00:58.121Z,57.07
2023-03-08T01:03:25.109Z,56.64
2023-03-08T01:05:54.547Z,56.75
2023-03-08T01:08:22.958Z,56.81
2023-03-08T01:10:53.144Z,56.83
2023-03-08T01:13:21.167Z,56.49
2023-03-08T01:15:47.828Z,56.76
2023-03-08T01:18:14.740Z,56.37
2023-03-08T01:20:41.508Z,56.67
2023-03-08T01:23:08.103Z,55.91
2023-03-08T01:25:34.662Z,56.22
2023-03-08T01:28:01.247Z,56.14
2023-03-08T01:30:28.013Z,56.10
2023-03-08T01:32:54.513Z,56.06
2023-03-08T01:35:21.127Z,56.37
2023-03-08T01:37:53.631Z,56.22
2023-03-08T01:40:21.146Z,56.10
2023-03-08T01:42:47.824Z,55.88
2023-03-08T01:45:52.150Z,55.89
2023-03-08T01:48:32.172Z,56.02
2023-03-08T01:51:00.948Z,55.81
2023-03-08T01:53:27.664Z,55.85
2023-03-08T01:55:55.306Z,56.05
2023-03-08T01:58:22.061Z,55.99
2023-03-08T02:00:48.527Z,55.86
2023-03-08T02:03:15.497Z,55.90
2023-03-08T02:05:43.786Z,55.80
2023-03-08T02:08:10.410Z,55.78
2023-03-08T02:10:37.932Z,55.76
2023-03-08T02:13:07.337Z,55.69
2023-03-08T02:15:34.474Z,55.74
2023-03-08T02:18:01.063Z,55.94
2023-03-08T02:20:30.521Z,55.75
2023-03-08T02:23:08.745Z,55.70
2023-03-08T02:25:35.444Z,55.62
2023-03-08T02:28:04.039Z,55.81
2023-03-08T02:30:34.702Z,55.93
2023-03-08T02:33:01.474Z,55.88
2023-03-08T02:35:27.865Z,55.64
2023-03-08T02:37:54.442Z,55.62
2023-03-08T02:40:25.557Z,55.96
2023-03-08T02:42:54.299Z,55.64
2023-03-08T02:45:20.780Z,55.75
2023-03-08T02:47:47.203Z,55.56
2023-03-08T02:50:13.685Z,55.62
2023-03-08T02:52:40.180Z,55.78
2023-03-08T02:55:09.389Z,55.63
2023-03-08T02:57:35.859Z,55.54
2023-03-08T03:00:02.445Z,55.63
2023-03-08T03:02:28.916Z,55.95
2023-03-08T03:04:55.432Z,55.87
2023-03-08T03:07:21.897Z,55.54
2023-03-08T03:09:48.428Z,55.43
2023-03-08T03:12:14.872Z,55.70
2023-03-08T03:14:41.413Z,55.69
2023-03-08T03:17:07.893Z,55.42
2023-03-08T03:19:34.373Z,55.46
2023-03-08T03:22:00.860Z,55.60
2023-03-08T03:24:27.321Z,55.44
2023-03-08T03:26:56.445Z,55.47
2023-03-08T03:29:22.934Z,55.49
2023-03-08T03:31:49.409Z,55.53
2023-03-08T03:34:15.868Z,55.47
2023-03-08T03:36:42.550Z,55.44
2023-03-08T03:39:09.061Z,55.36
2023-03-08T03:41:35.525Z,55.51
2023-03-08T03:44:02.468Z,55.41
2023-03-08T03:46:29.106Z,55.20
2023-03-08T03:48:55.613Z,55.10
2023-03-08T03:51:23.023Z,54.99
2023-03-08T03:53:50.088Z,55.13
2023-03-08T03:56:22.727Z,55.09
2023-03-08T03:58:49.561Z,55.17
2023-03-08T04:01:18.908Z,55.08
2023-03-08T04:03:45.432Z,54.90
2023-03-08T04:06:15.162Z,54.63
2023-03-08T04:08:42.574Z,54.65
2023-03-08T04:11:14.863Z,54.52
2023-03-08T04:13:41.993Z,54.40
2023-03-08T04:16:13.028Z,54.83
2023-03-08T04:18:39.667Z,54.74
2023-03-08T04:21:06.402Z,54.89
2023-03-08T04:23:33.587Z,54.90
2023-03-08T04:26:00.608Z,55.07
2023-03-08T04:28:27.643Z,54.63
2023-03-08T04:30:54.146Z,54.79
2023-03-08T04:33:21.163Z,54.83
2023-03-08T04:35:47.896Z,54.96
2023-03-08T04:38:14.320Z,54.97
2023-03-08T04:41:05.104Z,54.77
2023-03-08T04:43:34.855Z,55.21
2023-03-08T04:46:02.228Z,55.45
2023-03-08T04:48:28.939Z,55.53
2023-03-08T04:50:57.632Z,55.20
2023-03-08T04:53:25.345Z,55.19
2023-03-08T04:55:53.918Z,55.42
2023-03-08T04:58:20.883Z,54.98
2023-03-08T05:00:47.651Z,54.94
2023-03-08T05:03:14.132Z,54.95
2023-03-08T05:05:55.660Z,55.06
2023-03-08T05:08:23.153Z,55.17
2023-03-08T05:10:54.010Z,55.16
2023-03-08T05:13:20.631Z,54.79
2023-03-08T05:15:47.078Z,54.67
2023-03-08T05:18:13.608Z,58.48
2023-03-08T05:20:40.060Z,61.15
2023-03-08T05:23:06.738Z,63.93
2023-03-08T05:25:36.120Z,65.38
2023-03-08T05:28:02.551Z,66.65
2023-03-08T05:30:29.066Z,66.58
2023-03-08T05:32:57.836Z,63.56
2023-03-08T05:35:24.395Z,59.31
2023-03-08T05:37:50.885Z,57.49
2023-03-08T05:40:17.681Z,55.20
2023-03-08T05:42:44.007Z,56.68
2023-03-08T05:45:11.013Z,53.42
2023-03-08T05:47:37.452Z,53.01
2023-03-08T05:50:04.233Z,52.36
2023-03-08T05:52:34.405Z,54.00
2023-03-08T05:55:01.074Z,52.39
2023-03-08T05:57:28.404Z,52.58
2023-03-08T05:59:54.918Z,52.88
2023-03-08T06:02:21.426Z,52.72
2023-03-08T06:04:47.883Z,53.04
2023-03-08T06:07:14.418Z,53.06
2023-03-08T06:09:40.852Z,53.23
2023-03-08T06:12:07.551Z,53.55
2023-03-08T06:14:34.000Z,53.68
2023-03-08T06:17:00.549Z,53.94
2023-03-08T06:19:27.201Z,53.89
2023-03-08T06:21:53.735Z,54.07
2023-03-08T06:24:20.207Z,54.53
2023-03-08T06:26:46.628Z,54.48
2023-03-08T06:29:13.078Z,54.64
2023-03-08T06:31:39.540Z,54.79
2023-03-08T06:34:05.976Z,54.86
2023-03-08T06:36:32.475Z,54.70
2023-03-08T06:39:00.999Z,54.85
2023-03-08T06:41:29.665Z,54.95
2023-03-08T06:43:56.921Z,54.73
2023-03-08T06:46:23.508Z,54.99
2023-03-08T06:48:50.508Z,55.15
2023-03-08T06:51:18.344Z,54.97
2023-03-08T06:53:45.929Z,55.31
2023-03-08T06:56:15.338Z,54.92
2023-03-08T06:58:42.747Z,55.30
2023-03-08T07:01:12.982Z,54.90
2023-03-08T07:03:39.592Z,54.92
2023-03-08T07:06:11.457Z,55.06
2023-03-08T07:08:41.777Z,55.18
2023-03-08T07:11:09.845Z,54.92
2023-03-08T07:13:38.088Z,55.33
2023-03-08T07:16:10.016Z,55.27
2023-03-08T07:18:36.974Z,55.04
2023-03-08T07:21:04.122Z,54.94
2023-03-08T07:23:30.613Z,54.92
2023-03-08T07:25:57.104Z,55.20
2023-03-08T07:28:23.917Z,55.13
2023-03-08T07:30:52.652Z,55.27
2023-03-08T07:33:20.738Z,55.10
2023-03-08T07:35:47.610Z,55.21
2023-03-08T07:38:15.153Z,55.19
2023-03-08T07:40:42.056Z,55.28
2023-03-08T07:43:08.572Z,55.23
2023-03-08T07:45:35.342Z,55.42
2023-03-08T07:48:01.815Z,55.02
2023-03-08T07:50:28.338Z,55.22
2023-03-08T07:52:56.031Z,55.44
2023-03-08T07:55:22.577Z,55.49
2023-03-08T07:57:49.051Z,55.48
2023-03-08T08:00:15.904Z,55.79
2023-03-08T08:02:42.407Z,55.45
2023-03-08T08:05:09.420Z,55.19
2023-03-08T08:07:35.918Z,55.05
2023-03-08T08:10:02.435Z,55.10
2023-03-08T08:12:28.980Z,54.98
2023-03-08T08:14:55.465Z,54.74
2023-03-08T08:17:22.390Z,54.76
2023-03-08T08:19:49.169Z,54.95
2023-03-08T08:22:15.759Z,54.74
2023-03-08T08:24:42.341Z,55.22
2023-03-08T08:27:08.930Z,55.78
2023-03-08T08:29:37.632Z,55.31
2023-03-08T08:32:04.877Z,54.65
2023-03-08T08:34:31.482Z,54.91
2023-03-08T08:36:58.024Z,55.01
2023-03-08T08:39:24.541Z,55.02
2023-03-08T08:41:51.291Z,54.61
2023-03-08T08:44:17.798Z,54.79
2023-03-08T08:46:44.366Z,55.21
2023-03-08T08:49:11.125Z,55.30
2023-03-08T08:51:37.655Z,55.34
2023-03-08T08:54:04.386Z,54.12
2023-03-08T08:56:31.203Z,54.96
2023-03-08T08:59:00.464Z,53.75
2023-03-08T09:01:29.983Z,53.41
2023-03-08T09:03:57.053Z,53.25
2023-03-08T09:06:25.135Z,52.46
2023-03-08T09:08:54.852Z,52.98
2023-03-08T09:11:22.533Z,53.40
2023-03-08T09:13:49.344Z,53.25
2023-03-08T09:16:23.466Z,53.79
2023-03-08T09:18:51.100Z,52.89
2023-03-08T09:21:17.901Z,52.79
2023-03-08T09:23:44.681Z,53.70
2023-03-08T09:26:11.827Z,53.12
2023-03-08T09:28:38.468Z,52.38
2023-03-08T09:31:13.100Z,52.41
2023-03-08T09:33:48.394Z,53.43
2023-03-08T09:36:15.614Z,53.30
2023-03-08T09:38:42.905Z,52.85
2023-03-08T09:41:34.494Z,52.80
2023-03-08T09:44:35.214Z,53.43
2023-03-08T09:47:14.756Z,52.76
2023-03-08T09:49:45.601Z,52.48
2023-03-08T09:52:30.809Z,53.00
2023-03-08T09:54:59.459Z,52.96
2023-03-08T09:57:32.536Z,53.15
2023-03-08T10:00:07.672Z,53.26
2023-03-08T10:02:55.819Z,53.74
2023-03-08T10:05:33.396Z,54.19
2023-03-08T10:08:33.724Z,53.91
2023-03-08T10:11:03.656Z,54.04
2023-03-08T10:14:02.382Z,54.23
2023-03-08T10:16:53.012Z,54.23
2023-03-08T10:19:31.104Z,54.17
2023-03-08T10:22:01.317Z,54.83
2023-03-08T10:24:37.698Z,54.99
2023-03-08T10:27:19.924Z,54.69
2023-03-08T10:29:51.313Z,54.86
2023-03-08T10:32:18.003Z,55.44
2023-03-08T10:34:44.786Z,54.52
2023-03-08T10:37:11.337Z,54.95
2023-03-08T10:39:52.236Z,54.81
2023-03-08T10:42:25.184Z,53.83
2023-03-08T10:45:15.023Z,54.29
2023-03-08T10:47:41.811Z,54.40
2023-03-08T10:50:13.283Z,54.37
2023-03-08T10:52:40.669Z,54.91
2023-03-08T10:55:14.648Z,54.53
2023-03-08T10:57:45.738Z,54.15
2023-03-08T11:00:34.315Z,54.97
2023-03-08T11:03:21.998Z,54.80
2023-03-08T11:05:53.927Z,54.04
2023-03-08T11:08:24.510Z,53.88
2023-03-08T11:11:09.427Z,53.87
2023-03-08T11:13:38.760Z,53.26
2023-03-08T11:16:22.517Z,53.63
2023-03-08T11:19:08.061Z,53.78
2023-03-08T11:21:51.522Z,53.97
2023-03-08T11:24:39.819Z,53.17
2023-03-08T11:27:09.365Z,53.26
2023-03-08T11:29:52.408Z,52.46
2023-03-08T11:32:33.815Z,51.13
2023-03-08T11:35:25.404Z,52.51
2023-03-08T11:38:19.390Z,53.05
2023-03-08T11:40:54.474Z,51.99
2023-03-08T11:43:26.954Z,52.25
2023-03-08T11:46:09.456Z,53.10
2023-03-08T11:48:36.007Z,53.25
2023-03-08T11:51:28.142Z,53.45
2023-03-08T11:54:19.211Z,53.39
2023-03-08T11:56:57.004Z,53.46
2023-03-08T11:59:41.580Z,54.14
2023-03-08T12:02:08.008Z,54.38
2023-03-08T12:04:41.555Z,53.79
2023-03-08T12:07:26.683Z,54.27
2023-03-08T12:10:19.697Z,54.25
2023-03-08T12:13:20.925Z,54.11
2023-03-08T12:16:09.262Z,54.92
2023-03-08T12:18:54.485Z,54.22
2023-03-08T12:21:38.944Z,54.71
2023-03-08T12:24:48.304Z,54.38
2023-03-08T12:27:21.969Z,54.80
2023-03-08T12:30:00.929Z,55.05
2023-03-08T12:32:28.599Z,55.32
2023-03-08T12:35:04.632Z,55.40
2023-03-08T12:37:31.628Z,55.30
2023-03-08T12:40:07.320Z,55.55
2023-03-08T12:42:39.694Z,55.53
2023-03-08T12:45:28.095Z,55.62
2023-03-08T12:48:00.513Z,55.70
2023-03-08T12:50:27.786Z,55.45
2023-03-08T12:52:56.124Z,55.76
2023-03-08T12:55:33.423Z,55.88
2023-03-08T12:58:02.774Z,55.59
2023-03-08T13:00:35.526Z,55.76
2023-03-08T13:03:25.668Z,55.89
2023-03-08T13:05:52.348Z,55.66
2023-03-08T13:08:27.617Z,55.82
2023-03-08T13:11:02.694Z,55.50
2023-03-08T13:13:44.481Z,55.41
2023-03-08T13:16:22.485Z,55.43
2023-03-08T13:19:00.722Z,54.92
2023-03-08T13:21:47.386Z,54.99
2023-03-08T13:24:34.094Z,54.96
2023-03-08T13:27:21.503Z,54.76
2023-03-08T13:29:48.535Z,55.08
2023-03-08T13:32:21.365Z,54.98
2023-03-08T13:35:02.476Z,55.33
2023-03-08T13:37:30.327Z,55.39
2023-03-08T13:39:59.163Z,55.25
2023-03-08T13:42:28.565Z,55.29
2023-03-08T13:45:08.705Z,55.28
2023-03-08T13:47:37.800Z,55.48
2023-03-08T13:50:06.198Z,55.79
2023-03-08T13:52:36.633Z,55.61
2023-03-08T13:55:08.635Z,55.04
2023-03-08T13:57:37.910Z,55.59
2023-03-08T14:00:25.150Z,55.29
2023-03-08T14:02:52.808Z,55.27
2023-03-08T14:05:25.427Z,55.68
2023-03-08T14:08:06.247Z,55.19
2023-03-08T14:10:44.303Z,55.57
2023-03-08T14:13:24.400Z,55.24
2023-03-08T14:15:53.569Z,55.30
2023-03-08T14:18:23.199Z,55.09
2023-03-08T14:21:15.469Z,54.81
2023-03-08T14:23:59.973Z,54.89
2023-03-08T14:26:37.118Z,54.68
2023-03-08T14:29:03.822Z,54.93
2023-03-08T14:31:30.720Z,55.14
2023-03-08T14:34:03.370Z,54.98
2023-03-08T14:36:33.088Z,55.11
2023-03-08T14:39:00.428Z,55.23
2023-03-08T14:41:32.817Z,55.13
2023-03-08T14:44:00.659Z,55.22
2023-03-08T14:46:28.459Z,55.10
2023-03-08T14:49:00.829Z,55.59
2023-03-08T14:51:39.232Z,55.30
2023-03-08T14:54:20.548Z,55.50
2023-03-08T14:56:47.958Z,55.65
2023-03-08T14:59:26.798Z,55.55
2023-03-08T15:01:54.684Z,55.49
2023-03-08T15:04:25.870Z,55.55
2023-03-08T15:06:54.614Z,55.57
2023-03-08T15:09:22.240Z,55.70
2023-03-08T15:11:52.421Z,55.85
2023-03-08T15:14:18.934Z,55.93
2023-03-08T15:16:45.547Z,56.07
2023-03-08T15:19:13.962Z,55.78
2023-03-08T15:21:41.380Z,55.98
2023-03-08T15:24:15.043Z,56.05
2023-03-08T15:26:41.759Z,55.84
2023-03-08T15:29:27.335Z,55.78
2023-03-08T15:31:54.750Z,56.12
2023-03-08T15:34:21.841Z,56.18
2023-03-08T15:36:49.511Z,56.15
2023-03-08T15:39:16.034Z,55.93
2023-03-08T15:41:42.657Z,55.82
2023-03-08T15:44:09.172Z,56.13
2023-03-08T15:46:35.884Z,56.42
2023-03-08T15:49:02.598Z,56.08
2023-03-08T15:51:32.890Z,56.35
2023-03-08T15:53:59.977Z,56.39
2023-03-08T15:56:26.715Z,56.29
2023-03-08T15:58:54.611Z,55.67
2023-03-08T16:01:26.104Z,56.10
2023-03-08T16:03:54.420Z,56.21
2023-03-08T16:06:22.593Z,56.10
2023-03-08T16:08:50.029Z,56.15
2023-03-08T16:11:20.586Z,55.93
2023-03-08T16:13:49.064Z,56.14
2023-03-08T16:16:15.855Z,55.93
2023-03-08T16:18:44.047Z,55.13
2023-03-08T16:21:11.209Z,55.81
2023-03-08T16:23:39.574Z,56.14
2023-03-08T16:26:16.705Z,56.15
2023-03-08T16:28:46.215Z,56.38
2023-03-08T16:31:14.020Z,56.25
2023-03-08T16:33:40.820Z,56.50
2023-03-08T16:36:08.002Z,56.55
2023-03-08T16:38:34.684Z,56.34
2023-03-08T16:41:12.160Z,56.80
2023-03-08T16:43:46.909Z,56.65
2023-03-08T16:46:19.631Z,56.75
2023-03-08T16:48:49.410Z,56.64
2023-03-08T16:51:18.561Z,56.58
2023-03-08T16:53:45.138Z,56.53
2023-03-08T16:56:22.219Z,56.81
2023-03-08T16:58:48.928Z,56.81
2023-03-08T17:01:17.451Z,56.83
2023-03-08T17:03:44.241Z,56.96
2023-03-08T17:06:11.911Z,55.68
2023-03-08T17:08:38.776Z,56.70
2023-03-08T17:11:06.340Z,57.12
2023-03-08T17:13:33.714Z,56.96
2023-03-08T17:16:00.329Z,57.06
2023-03-08T17:18:29.305Z,57.15
2023-03-08T17:20:56.806Z,57.09
2023-03-08T17:23:23.744Z,57.02
2023-03-08T17:25:52.557Z,57.45
2023-03-08T17:28:20.661Z,57.13
2023-03-08T17:30:49.582Z,57.29
2023-03-08T17:33:16.158Z,57.29
